Time;durP1;ratioP1;P1;durP2;ratioP2;P2;SDS_P1;SDS_P2;PMS_P1;PMS_P2;Temp;Humidity;BMP_temperature;BMP_pressure;BME280_temperature;BME280_humidity;BME280_pressure;Samples;Min_cycle;Max_cycle;Signal;HPM_P1;HPM_P2
2022/10/22 00:00:09;;;;;;;14.10;9.85;;;13.40;99.90;;;;;;5030964;28;20045;-73
2022/10/22 00:02:34;;;;;;;15.07;11.00;;;13.50;99.90;;;;;;5030474;28;20080;-74
2022/10/22 00:05:00;;;;;;;13.43;9.98;;;13.50;99.90;;;;;;5031297;28;20026;-74
2022/10/22 00:07:26;;;;;;;13.13;9.88;;;13.50;99.90;;;;;;5013132;28;20064;-75
2022/10/22 00:09:51;;;;;;;13.25;9.93;;;13.50;99.90;;;;;;5030989;28;20495;-75
2022/10/22 00:12:17;;;;;;;17.75;10.52;;;13.50;99.90;;;;;;5034480;28;20025;-76
2022/10/22 00:14:43;;;;;;;17.77;11.13;;;13.50;99.90;;;;;;5015163;28;20026;-75
2022/10/22 00:17:09;;;;;;;16.92;10.73;;;13.50;99.90;;;;;;5027499;28;20460;-76
2022/10/22 00:19:34;;;;;;;12.90;9.70;;;13.50;99.90;;;;;;4994345;28;20050;-76
2022/10/22 00:22:04;;;;;;;13.45;10.15;;;13.50;99.90;;;;;;5010091;28;20137;-75
2022/10/22 00:24:30;;;;;;;14.80;9.73;;;13.50;99.90;;;;;;5021252;28;20662;-77
2022/10/22 00:26:56;;;;;;;17.05;10.15;;;13.50;99.90;;;;;;5034389;28;20049;-76
2022/10/22 00:29:21;;;;;;;16.13;9.65;;;13.50;99.90;;;;;;5021133;28;20076;-76
2022/10/22 00:31:48;;;;;;;15.70;10.85;;;13.50;99.90;;;;;;5021377;28;20022;-76
2022/10/22 00:34:20;;;;;;;14.75;10.15;;;13.50;99.90;;;;;;5021118;28;20151;-76
2022/10/22 00:36:46;;;;;;;13.93;9.40;;;13.50;99.90;;;;;;5033713;28;20112;-77
2022/10/22 00:39:14;;;;;;;12.52;9.23;;;13.50;99.90;;;;;;5021884;28;20036;-76
2022/10/22 00:41:41;;;;;;;15.48;9.88;;;13.60;99.90;;;;;;5024018;28;20021;-76
2022/10/22 00:44:07;;;;;;;12.35;9.30;;;13.60;99.90;;;;;;5034212;28;20502;-75
2022/10/22 00:46:33;;;;;;;15.57;10.32;;;13.60;99.90;;;;;;5003273;28;20030;-77
2022/10/22 00:49:01;;;;;;;16.92;9.38;;;13.50;99.90;;;;;;5026230;28;20052;-77
2022/10/22 00:51:30;;;;;;;14.18;9.82;;;13.60;99.90;;;;;;5009758;28;20021;-77
2022/10/22 00:54:01;;;;;;;11.25;9.43;;;13.60;99.90;;;;;;5022668;28;20472;-75
2022/10/22 00:56:27;;;;;;;13.70;9.02;;;13.50;99.90;;;;;;5012253;28;20029;-76
2022/10/22 00:58:58;;;;;;;17.00;9.65;;;13.60;99.90;;;;;;5024494;28;20369;-77
2022/10/22 01:01:26;;;;;;;13.93;9.35;;;13.50;99.90;;;;;;5017878;28;20026;-76
2022/10/22 01:03:52;;;;;;;12.48;8.98;;;13.50;99.90;;;;;;5005301;28;20438;-76
2022/10/22 01:06:27;;;;;;;15.05;9.65;;;13.50;99.90;;;;;;5027391;28;20053;-76
2022/10/22 01:09:10;;;;;;;14.10;10.40;;;13.50;99.90;;;;;;5025596;28;20037;-77
2022/10/22 01:11:55;;;;;;;11.88;9.50;;;13.50;99.90;;;;;;5008305;28;20022;-76
2022/10/22 01:14:28;;;;;;;11.93;8.75;;;13.50;99.90;;;;;;5009880;28;20376;-77
2022/10/22 01:17:04;;;;;;;11.60;8.75;;;13.50;99.90;;;;;;5024451;28;20060;-77
2022/10/22 01:19:49;;;;;;;13.80;9.85;;;13.50;99.90;;;;;;5002550;28;20064;-76
2022/10/22 01:22:41;;;;;;;11.93;9.27;;;13.50;99.90;;;;;;5019512;28;20037;-76
2022/10/22 01:25:26;;;;;;;12.48;9.80;;;13.60;99.90;;;;;;5015760;28;20099;-75
2022/10/22 01:28:26;;;;;;;15.63;9.48;;;13.50;99.90;;;;;;5020955;28;20475;-75
2022/10/22 01:30:54;;;;;;;12.88;8.93;;;13.60;99.90;;;;;;5028265;28;20026;-76
2022/10/22 01:33:22;;;;;;;12.55;9.48;;;13.50;99.90;;;;;;5025285;28;20471;-76
2022/10/22 01:35:48;;;;;;;12.77;9.10;;;13.50;99.90;;;;;;5033121;28;20473;-76
2022/10/22 01:38:19;;;;;;;14.25;10.40;;;13.50;99.90;;;;;;5020857;28;20030;-75
2022/10/22 01:40:46;;;;;;;13.55;9.20;;;13.50;99.90;;;;;;5032773;28;20021;-75
2022/10/22 01:43:12;;;;;;;12.05;9.00;;;13.50;99.90;;;;;;5032965;28;20032;-75
2022/10/22 01:45:45;;;;;;;12.73;9.07;;;13.50;99.90;;;;;;5019869;28;20025;-75
2022/10/22 01:48:16;;;;;;;12.25;9.40;;;13.50;99.90;;;;;;5001848;28;20036;-76
2022/10/22 01:51:01;;;;;;;13.50;8.88;;;13.50;99.90;;;;;;5024839;28;20021;-76
2022/10/22 01:53:48;;;;;;;11.95;8.68;;;13.50;99.90;;;;;;5026383;28;20364;-76
2022/10/22 01:56:28;;;;;;;12.55;9.07;;;13.50;99.90;;;;;;5026543;28;20183;-76
2022/10/22 01:59:06;;;;;;;15.82;9.05;;;13.50;99.90;;;;;;5015187;28;20025;-76
2022/10/22 02:01:43;;;;;;;12.52;9.07;;;13.40;99.90;;;;;;5032805;28;20086;-75
2022/10/22 02:04:25;;;;;;;13.98;9.50;;;13.50;99.90;;;;;;5014916;28;20498;-74
2022/10/22 02:06:53;;;;;;;16.15;9.18;;;13.50;99.90;;;;;;5021042;28;20032;-75
2022/10/22 02:09:21;;;;;;;11.57;8.18;;;13.40;99.90;;;;;;5032486;28;20032;-75
2022/10/22 02:11:48;;;;;;;13.32;9.07;;;13.40;99.90;;;;;;5023573;28;20392;-76
2022/10/22 02:14:16;;;;;;;12.82;8.63;;;13.40;99.90;;;;;;5026106;28;20018;-76
2022/10/22 02:16:44;;;;;;;11.95;8.55;;;13.40;99.90;;;;;;5004237;28;20017;-76
2022/10/22 02:19:25;;;;;;;13.85;8.00;;;13.50;99.90;;;;;;5018936;28;20034;-77
2022/10/22 02:21:51;;;;;;;12.80;8.02;;;13.40;99.90;;;;;;5020684;28;20408;-77
2022/10/22 02:24:17;;;;;;;12.48;8.50;;;13.40;99.90;;;;;;5025892;28;20056;-76
2022/10/22 02:27:00;;;;;;;13.10;8.15;;;13.40;99.90;;;;;;5006434;28;20570;-76
2022/10/22 02:29:39;;;;;;;10.95;7.57;;;13.40;99.90;;;;;;5019896;28;20091;-76
2022/10/22 02:32:09;;;;;;;9.70;7.45;;;13.40;99.90;;;;;;5029441;28;20053;-76
2022/10/22 02:34:35;;;;;;;11.55;7.25;;;13.40;99.90;;;;;;5003583;28;20111;-75
2022/10/22 02:37:02;;;;;;;10.30;6.95;;;13.40;99.90;;;;;;5018611;28;20053;-75
2022/10/22 02:39:29;;;;;;;9.05;7.22;;;13.40;99.90;;;;;;5032080;28;20036;-77
2022/10/22 02:41:56;;;;;;;12.00;7.50;;;13.40;99.90;;;;;;5014605;28;20075;-76
2022/10/22 02:44:23;;;;;;;8.60;6.88;;;13.40;99.90;;;;;;5032070;28;20031;-76
2022/10/22 02:46:49;;;;;;;12.20;7.60;;;13.40;99.90;;;;;;5032003;28;20022;-75
2022/10/22 02:49:15;;;;;;;9.23;6.85;;;13.40;99.90;;;;;;5031936;28;20030;-76
2022/10/22 02:51:41;;;;;;;9.57;6.85;;;13.40;99.90;;;;;;5027897;28;20388;-76
2022/10/22 02:54:07;;;;;;;9.52;6.85;;;13.30;99.90;;;;;;5012313;28;20033;-76
2022/10/22 02:56:33;;;;;;;11.43;6.68;;;13.30;99.90;;;;;;5012220;28;20025;-76
2022/10/22 02:58:58;;;;;;;12.35;6.60;;;13.30;99.90;;;;;;4994514;28;20029;-76
2022/10/22 03:01:24;;;;;;;9.93;6.63;;;13.30;99.90;;;;;;5029096;28;20029;-76
2022/10/22 03:03:50;;;;;;;8.98;6.43;;;13.30;99.90;;;;;;5031767;28;20033;-76
2022/10/22 03:06:16;;;;;;;7.30;5.95;;;13.30;99.90;;;;;;5018412;28;20038;-76
2022/10/22 03:08:42;;;;;;;9.43;6.35;;;13.30;99.90;;;;;;5021159;28;20022;-77
2022/10/22 03:11:08;;;;;;;8.05;6.15;;;13.30;99.90;;;;;;4994373;28;20049;-76
2022/10/22 03:13:33;;;;;;;9.80;6.47;;;13.30;99.90;;;;;;5022060;28;20022;-76
2022/10/22 03:15:59;;;;;;;7.85;5.95;;;13.30;99.90;;;;;;5018484;28;20053;-76
2022/10/22 03:18:24;;;;;;;9.77;6.40;;;13.30;99.90;;;;;;5031403;28;20036;-75
2022/10/22 03:20:58;;;;;;;9.90;6.20;;;13.20;99.90;;;;;;5013790;28;20052;-76
2022/10/22 03:23:24;;;;;;;9.40;5.70;;;13.20;99.90;;;;;;5013634;28;20061;-75
2022/10/22 03:25:49;;;;;;;10.95;6.63;;;13.20;99.90;;;;;;5031429;28;20033;-75
2022/10/22 03:28:17;;;;;;;7.53;6.25;;;13.20;99.90;;;;;;5020483;28;20033;-76
2022/10/22 03:30:42;;;;;;;9.90;7.28;;;13.20;99.90;;;;;;5007402;28;20026;-75
2022/10/22 03:33:08;;;;;;;9.88;7.68;;;13.20;99.90;;;;;;5022377;28;20173;-76
2022/10/22 03:35:42;;;;;;;9.18;6.68;;;13.20;99.90;;;;;;5009635;28;20022;-75
2022/10/22 03:38:08;;;;;;;9.52;7.05;;;13.20;99.90;;;;;;5013874;28;20049;-75
2022/10/22 03:40:33;;;;;;;14.68;7.40;;;13.20;99.90;;;;;;5031347;28;20065;-75
2022/10/22 03:42:59;;;;;;;9.13;7.03;;;13.10;99.90;;;;;;5013588;28;20029;-75
2022/10/22 03:45:24;;;;;;;11.60;6.70;;;13.00;99.90;;;;;;5009045;28;20030;-76
2022/10/22 03:47:50;;;;;;;9.32;6.40;;;13.00;99.90;;;;;;5026913;28;20136;-76
2022/10/22 03:50:16;;;;;;;10.25;7.80;;;13.00;99.90;;;;;;5022038;28;20034;-76
2022/10/22 03:52:41;;;;;;;11.30;6.65;;;13.00;99.90;;;;;;5023555;28;20022;-76
2022/10/22 03:55:08;;;;;;;10.10;6.82;;;13.00;99.90;;;;;;5011071;28;20033;-76
2022/10/22 03:57:34;;;;;;;8.60;6.47;;;13.00;99.90;;;;;;5026469;28;20026;-76
2022/10/22 03:59:59;;;;;;;6.95;5.53;;;13.00;99.90;;;;;;5004795;28;20040;-75
2022/10/22 04:02:25;;;;;;;8.20;6.40;;;13.00;99.90;;;;;;5034941;28;20029;-76
2022/10/22 04:04:50;;;;;;;11.25;6.40;;;13.00;99.90;;;;;;5029501;28;20065;-75
2022/10/22 04:07:16;;;;;;;11.32;6.60;;;13.00;99.90;;;;;;4997394;28;20076;-75
2022/10/22 04:09:41;;;;;;;8.38;6.05;;;13.00;99.90;;;;;;5028249;28;20076;-74
2022/10/22 04:12:08;;;;;;;10.25;6.40;;;13.00;99.90;;;;;;5026788;28;20025;-75
2022/10/22 04:14:34;;;;;;;7.82;5.85;;;13.00;99.90;;;;;;5021438;28;20151;-75
2022/10/22 04:17:00;;;;;;;10.13;6.97;;;12.90;99.90;;;;;;5022578;28;20532;-75
2022/10/22 04:19:25;;;;;;;12.80;8.18;;;12.90;99.90;;;;;;5028121;28;20034;-76
2022/10/22 04:21:51;;;;;;;11.35;7.50;;;12.80;99.90;;;;;;5026454;28;20075;-76
2022/10/22 04:24:17;;;;;;;13.68;6.78;;;12.80;99.90;;;;;;5011754;28;20022;-76
2022/10/22 04:26:42;;;;;;;10.68;6.93;;;12.80;99.90;;;;;;5026359;28;20033;-75
2022/10/22 04:29:08;;;;;;;12.85;10.07;;;12.80;99.90;;;;;;5016333;28;20065;-76
2022/10/22 04:31:33;;;;;;;45.65;25.60;;;12.80;99.90;;;;;;5034310;28;20298;-76
2022/10/22 04:34:00;;;;;;;20.75;11.77;;;12.90;99.90;;;;;;5028681;28;20037;-76
2022/10/22 04:36:27;;;;;;;8.00;6.03;;;12.90;99.90;;;;;;5008025;28;20026;-74
2022/10/22 04:38:55;;;;;;;7.68;5.00;;;12.90;99.90;;;;;;5011904;28;20412;-76
2022/10/22 04:41:35;;;;;;;11.07;5.18;;;12.90;99.90;;;;;;5008345;28;20029;-76
2022/10/22 04:44:02;;;;;;;11.82;6.03;;;12.90;99.90;;;;;;5021374;28;20487;-75
2022/10/22 04:46:30;;;;;;;8.98;5.03;;;13.00;99.90;;;;;;5016121;28;20032;-76
2022/10/22 04:48:56;;;;;;;7.75;5.25;;;12.90;99.90;;;;;;5021167;28;20037;-75
2022/10/22 04:51:23;;;;;;;5.43;4.72;;;12.90;99.90;;;;;;5020841;28;20026;-75
2022/10/22 04:53:49;;;;;;;7.53;6.70;;;12.90;99.90;;;;;;5016191;28;20108;-75
2022/10/22 04:56:20;;;;;;;8.38;7.38;;;12.80;99.90;;;;;;5033994;28;20036;-75
2022/10/22 04:58:50;;;;;;;8.45;5.93;;;12.80;99.90;;;;;;5007142;28;20026;-75
2022/10/22 05:01:30;;;;;;;10.73;6.00;;;12.70;99.90;;;;;;5043333;28;20021;-75
2022/10/22 05:03:58;;;;;;;6.30;4.38;;;12.60;99.90;;;;;;5033718;28;20033;-76
2022/10/22 05:06:25;;;;;;;7.97;4.47;;;12.70;99.90;;;;;;5028915;28;20053;-76
2022/10/22 05:09:05;;;;;;;7.93;5.53;;;12.70;99.90;;;;;;5013860;28;20035;-76
2022/10/22 05:11:33;;;;;;;8.45;4.38;;;12.70;99.90;;;;;;5020671;28;20068;-75
2022/10/22 05:14:00;;;;;;;5.05;4.28;;;12.70;99.90;;;;;;5033141;28;20049;-75
2022/10/22 05:16:30;;;;;;;7.00;4.32;;;12.70;99.90;;;;;;5003680;28;20479;-76
2022/10/22 05:18:58;;;;;;;5.13;3.80;;;12.70;99.90;;;;;;5032178;28;20555;-75
2022/10/22 05:21:24;;;;;;;6.60;3.65;;;12.80;99.90;;;;;;5003881;28;20033;-76
2022/10/22 05:23:50;;;;;;;8.80;4.28;;;12.80;99.90;;;;;;5001118;28;20036;-75
2022/10/22 05:26:18;;;;;;;8.38;4.03;;;12.80;99.90;;;;;;5004173;28;20112;-75
2022/10/22 05:28:45;;;;;;;7.25;4.55;;;12.80;99.90;;;;;;5029993;28;20506;-75
2022/10/22 05:31:12;;;;;;;6.05;4.85;;;12.80;99.90;;;;;;5022223;28;20029;-76
2022/10/22 05:33:39;;;;;;;6.13;4.60;;;12.80;99.90;;;;;;5013188;28;20021;-75
2022/10/22 05:36:06;;;;;;;8.38;5.32;;;12.90;99.90;;;;;;5025530;28;20096;-75
2022/10/22 05:38:33;;;;;;;6.78;4.32;;;12.80;99.90;;;;;;5015232;28;20026;-75
2022/10/22 05:41:04;;;;;;;5.88;4.20;;;12.80;99.90;;;;;;5033113;28;20585;-75
2022/10/22 05:43:30;;;;;;;5.13;3.60;;;12.90;99.90;;;;;;5032995;28;20026;-76
2022/10/22 05:46:00;;;;;;;6.30;3.78;;;12.80;99.90;;;;;;5023107;28;20022;-75
2022/10/22 05:48:26;;;;;;;6.25;4.10;;;12.80;99.90;;;;;;5017151;28;20036;-76
2022/10/22 05:50:51;;;;;;;5.78;3.88;;;12.80;99.90;;;;;;5032940;28;20030;-76
2022/10/22 05:53:17;;;;;;;7.25;4.00;;;12.80;99.90;;;;;;5015081;28;20391;-76
2022/10/22 05:55:43;;;;;;;9.20;4.05;;;12.80;99.90;;;;;;5032894;28;20021;-76
2022/10/22 05:58:10;;;;;;;4.13;3.65;;;12.90;99.90;;;;;;5019393;28;20030;-76
2022/10/22 06:00:36;;;;;;;5.13;3.50;;;12.90;99.90;;;;;;5032798;28;20071;-76
2022/10/22 06:03:01;;;;;;;9.23;4.88;;;12.80;99.90;;;;;;5001629;28;20064;-75
2022/10/22 06:05:27;;;;;;;4.82;3.63;;;12.80;99.90;;;;;;5022345;28;20030;-76
2022/10/22 06:07:54;;;;;;;6.57;4.97;;;12.80;99.90;;;;;;5025874;28;20040;-76
2022/10/22 06:10:20;;;;;;;8.38;5.30;;;12.80;99.90;;;;;;5022870;28;20053;-76
2022/10/22 06:12:47;;;;;;;8.13;5.00;;;12.80;99.90;;;;;;5001669;28;20068;-76
2022/10/22 06:15:14;;;;;;;6.93;4.63;;;12.70;99.90;;;;;;5022101;28;20480;-76
2022/10/22 06:17:40;;;;;;;23.25;16.75;;;12.70;99.90;;;;;;5025783;28;20022;-76
2022/10/22 06:20:06;;;;;;;17.80;12.10;;;12.70;99.90;;;;;;5023210;28;20028;-77
2022/10/22 06:22:32;;;;;;;58.60;42.75;;;12.70;99.90;;;;;;5028723;28;20108;-75
2022/10/22 06:24:58;;;;;;;70.13;49.17;;;12.60;99.90;;;;;;5005415;28;20133;-76
2022/10/22 06:27:23;;;;;;;42.63;27.38;;;12.50;99.90;;;;;;5001199;28;20022;-76
2022/10/22 06:29:49;;;;;;;45.47;28.38;;;12.50;99.90;;;;;;5014544;28;20031;-75
2022/10/22 06:32:14;;;;;;;12.73;7.47;;;12.60;99.90;;;;;;5028565;28;20026;-76
2022/10/22 06:34:40;;;;;;;42.17;26.38;;;12.50;99.90;;;;;;5004896;28;20501;-75
2022/10/22 06:37:05;;;;;;;15.48;8.38;;;12.50;99.90;;;;;;5018811;28;20029;-75
2022/10/22 06:39:31;;;;;;;12.02;7.05;;;12.50;99.90;;;;;;5021145;28;20026;-75
2022/10/22 06:41:56;;;;;;;13.00;8.90;;;12.50;99.90;;;;;;5011120;28;20380;-75
2022/10/22 06:44:22;;;;;;;17.98;12.52;;;12.40;99.90;;;;;;5032197;28;20043;-75
2022/10/22 06:46:51;;;;;;;17.05;11.38;;;12.40;99.90;;;;;;5029055;28;20032;-76
2022/10/22 06:49:18;;;;;;;7.15;5.25;;;12.40;99.90;;;;;;5028515;28;20029;-76
2022/10/22 06:51:44;;;;;;;6.70;4.90;;;12.40;99.90;;;;;;5010443;28;20075;-75
2022/10/22 06:54:10;;;;;;;10.50;4.53;;;12.40;99.90;;;;;;5022350;28;20096;-75
2022/10/22 06:56:35;;;;;;;7.18;4.25;;;12.40;99.90;;;;;;5018659;28;20098;-75
2022/10/22 06:59:01;;;;;;;5.85;4.63;;;12.40;99.90;;;;;;5014009;28;20199;-74
2022/10/22 07:01:30;;;;;;;5.05;4.15;;;12.40;99.90;;;;;;5014055;28;20119;-75
2022/10/22 07:03:56;;;;;;;6.38;3.92;;;12.30;99.90;;;;;;5031691;28;20029;-74
2022/10/22 07:06:23;;;;;;;8.77;4.70;;;12.30;99.90;;;;;;5027115;28;20026;-75
2022/10/22 07:08:49;;;;;;;5.65;4.03;;;12.40;99.90;;;;;;5023311;28;20100;-75
2022/10/22 07:11:15;;;;;;;6.07;4.00;;;12.40;99.90;;;;;;5031781;28;20104;-75
2022/10/22 07:13:41;;;;;;;6.18;3.90;;;12.40;99.90;;;;;;5020015;28;20030;-75
2022/10/22 07:16:08;;;;;;;5.72;3.45;;;12.40;99.90;;;;;;5025025;28;20108;-75
2022/10/22 07:18:36;;;;;;;4.25;3.60;;;12.70;99.90;;;;;;5023273;28;20108;-75
2022/10/22 07:21:02;;;;;;;5.60;3.70;;;12.50;99.90;;;;;;5028148;28;20037;-75
2022/10/22 07:23:28;;;;;;;7.43;3.92;;;12.60;99.90;;;;;;5027974;28;20039;-75
2022/10/22 07:25:54;;;;;;;5.32;4.40;;;12.60;99.90;;;;;;5012296;28;20470;-75
2022/10/22 07:28:20;;;;;;;5.75;4.45;;;12.60;99.90;;;;;;5027889;28;20043;-75
2022/10/22 07:30:46;;;;;;;8.80;4.50;;;12.50;99.90;;;;;;5004675;28;20022;-75
2022/10/22 07:33:11;;;;;;;9.48;4.90;;;12.60;99.90;;;;;;5023537;28;20476;-75
2022/10/22 07:35:38;;;;;;;9.57;5.15;;;12.60;99.90;;;;;;5029064;28;20100;-75
2022/10/22 07:38:05;;;;;;;8.82;4.78;;;12.60;99.90;;;;;;5009714;28;20026;-75
2022/10/22 07:40:31;;;;;;;7.57;4.13;;;12.60;99.90;;;;;;5021904;28;20088;-76
2022/10/22 07:42:56;;;;;;;6.38;4.57;;;12.60;99.90;;;;;;5016251;28;20021;-75
2022/10/22 07:45:22;;;;;;;4.65;4.13;;;12.70;99.90;;;;;;5003000;28;20037;-75
2022/10/22 07:47:48;;;;;;;6.43;3.50;;;12.80;99.90;;;;;;5021241;28;20084;-75
2022/10/22 07:50:13;;;;;;;4.43;3.35;;;12.80;99.90;;;;;;5027714;28;20104;-75
2022/10/22 07:52:39;;;;;;;8.10;6.57;;;12.90;99.90;;;;;;5026367;28;20029;-75
2022/10/22 07:55:05;;;;;;;10.88;6.57;;;12.90;99.90;;;;;;5034529;28;20021;-75
2022/10/22 07:57:30;;;;;;;6.95;4.45;;;12.90;99.90;;;;;;5016051;28;20029;-76
2022/10/22 07:59:57;;;;;;;7.47;4.90;;;12.90;99.90;;;;;;5020119;28;20057;-76
2022/10/22 08:02:23;;;;;;;5.47;4.60;;;13.00;99.90;;;;;;5015477;28;20044;-76
2022/10/22 08:04:49;;;;;;;12.15;5.40;;;13.00;99.90;;;;;;5008798;28;20336;-77
2022/10/22 08:07:15;;;;;;;10.82;6.60;;;13.00;99.90;;;;;;5009403;28;20505;-76
2022/10/22 08:09:40;;;;;;;8.57;6.32;;;13.10;99.90;;;;;;5028944;28;20021;-77
2022/10/22 08:12:06;;;;;;;4.57;3.15;;;13.10;99.90;;;;;;5013543;28;20022;-76
2022/10/22 08:14:32;;;;;;;5.03;3.63;;;13.00;99.90;;;;;;5016754;28;20071;-76
2022/10/22 08:16:57;;;;;;;8.68;6.78;;;13.10;99.90;;;;;;5034469;28;20108;-75
2022/10/22 08:19:23;;;;;;;9.15;8.25;;;13.20;99.90;;;;;;5030222;28;20395;-76
2022/10/22 08:21:49;;;;;;;6.13;5.63;;;13.20;99.90;;;;;;5022825;28;20576;-77
2022/10/22 08:24:15;;;;;;;4.93;4.43;;;13.40;99.90;;;;;;5010105;28;20036;-75
2022/10/22 08:26:41;;;;;;;5.55;4.30;;;13.40;99.90;;;;;;5026147;28;20029;-75
2022/10/22 08:29:07;;;;;;;3.95;3.33;;;13.60;99.90;;;;;;5021004;28;20497;-75
2022/10/22 08:31:33;;;;;;;5.72;3.15;;;13.50;99.90;;;;;;5022682;28;20026;-75
2022/10/22 08:33:59;;;;;;;5.35;2.70;;;13.50;99.90;;;;;;5027912;28;20032;-75
2022/10/22 08:36:25;;;;;;;3.33;2.53;;;13.60;99.90;;;;;;5008372;28;20022;-75
2022/10/22 08:38:50;;;;;;;2.95;2.20;;;13.80;99.90;;;;;;5011683;28;20041;-76
2022/10/22 08:41:19;;;;;;;2.63;2.40;;;13.90;99.90;;;;;;5025794;28;20040;-76
2022/10/22 08:43:52;;;;;;;5.55;2.28;;;13.90;99.90;;;;;;5003283;28;20032;-76
2022/10/22 08:46:55;;;;;;;3.55;2.03;;;14.10;99.90;;;;;;5004033;28;20033;-76
2022/10/22 08:49:26;;;;;;;4.40;1.60;;;14.10;99.90;;;;;;5025318;28;20029;-76
2022/10/22 08:51:52;;;;;;;4.65;3.03;;;13.90;99.90;;;;;;5029183;28;20023;-75
2022/10/22 08:54:39;;;;;;;2.78;1.80;;;14.10;99.90;;;;;;5008011;28;20029;-75
2022/10/22 08:57:14;;;;;;;3.30;2.45;;;13.90;99.90;;;;;;5021844;28;20068;-75
2022/10/22 08:59:46;;;;;;;2.90;2.22;;;13.90;99.90;;;;;;5033682;28;20083;-75
2022/10/22 09:02:49;;;;;;;2.67;1.73;;;14.00;99.90;;;;;;5033784;28;20563;-76
2022/10/22 09:05:42;;;;;;;3.70;2.10;;;13.90;99.90;;;;;;5022757;28;20176;-75
2022/10/22 09:08:12;;;;;;;3.63;2.28;;;14.10;99.90;;;;;;5033479;28;20029;-75
2022/10/22 09:10:42;;;;;;;3.88;2.10;;;14.20;99.90;;;;;;5034150;28;20032;-75
2022/10/22 09:13:10;;;;;;;7.38;3.05;;;14.20;99.90;;;;;;5009362;28;20022;-76
2022/10/22 09:15:37;;;;;;;4.28;3.00;;;14.20;99.90;;;;;;5014693;28;20033;-77
2022/10/22 09:18:11;;;;;;;3.70;2.67;;;14.20;99.90;;;;;;5026485;28;20034;-75
2022/10/22 09:20:48;;;;;;;4.43;2.78;;;14.20;99.90;;;;;;5011420;28;20476;-76
2022/10/22 09:23:40;;;;;;;3.60;2.60;;;14.50;99.90;;;;;;5005826;28;20125;-76
2022/10/22 09:26:14;;;;;;;2.25;2.10;;;14.50;99.90;;;;;;5009938;28;20400;-76
2022/10/22 09:28:39;;;;;;;2.55;1.90;;;14.20;99.90;;;;;;5020280;28;20480;-76
2022/10/22 09:31:13;;;;;;;3.42;2.00;;;14.00;99.90;;;;;;5025528;28;20030;-76
2022/10/22 09:33:40;;;;;;;2.53;2.10;;;13.80;99.90;;;;;;5029152;28;20026;-74
2022/10/22 09:36:06;;;;;;;3.22;2.00;;;13.80;99.90;;;;;;5006597;28;20109;-75
2022/10/22 09:38:59;;;;;;;3.10;2.47;;;13.70;99.90;;;;;;5026788;28;20025;-75
2022/10/22 09:41:30;;;;;;;4.10;2.13;;;13.80;99.90;;;;;;5004814;28;20044;-75
2022/10/22 09:43:57;;;;;;;3.03;2.17;;;14.00;99.90;;;;;;5011500;28;20411;-75
2022/10/22 09:46:28;;;;;;;11.25;2.60;;;13.90;99.90;;;;;;5026092;28;20029;-75
2022/10/22 09:49:11;;;;;;;5.20;2.42;;;13.90;99.90;;;;;;5019809;28;20021;-75
2022/10/22 09:51:47;;;;;;;3.67;2.33;;;13.90;99.90;;;;;;5030225;28;20049;-76
2022/10/22 09:54:15;;;;;;;4.80;3.33;;;14.00;99.90;;;;;;5023833;28;20021;-76
2022/10/22 09:56:45;;;;;;;4.80;2.33;;;14.00;99.90;;;;;;5019352;28;20087;-76
2022/10/22 09:59:15;;;;;;;4.43;2.50;;;14.00;99.90;;;;;;5030417;28;20024;-76
2022/10/22 10:01:41;;;;;;;7.05;2.72;;;14.30;99.90;;;;;;5043347;28;20026;-76
2022/10/22 10:04:14;;;;;;;4.55;2.38;;;14.50;99.90;;;;;;5014846;28;20121;-76
2022/10/22 10:06:42;;;;;;;6.20;2.60;;;14.50;99.90;;;;;;5031591;28;20108;-76
2022/10/22 10:09:26;;;;;;;7.72;2.60;;;14.70;99.90;;;;;;5031475;28;20030;-76
2022/10/22 10:12:24;;;;;;;4.97;2.20;;;14.70;99.90;;;;;;5022802;28;20018;-75
2022/10/22 10:15:04;;;;;;;3.55;2.00;;;14.80;99.90;;;;;;5002883;28;20032;-76
2022/10/22 10:17:38;;;;;;;3.22;2.10;;;14.60;99.90;;;;;;5029466;28;20030;-76
2022/10/22 10:20:32;;;;;;;4.07;2.20;;;14.80;99.90;;;;;;5023446;28;20032;-76
2022/10/22 10:23:15;;;;;;;4.13;2.17;;;14.90;99.90;;;;;;5002629;28;20033;-76
2022/10/22 10:25:47;;;;;;;4.32;2.08;;;14.90;99.90;;;;;;5028802;28;20101;-76
2022/10/22 10:28:40;;;;;;;5.32;2.17;;;14.80;99.90;;;;;;5023370;28;20108;-74
2022/10/22 10:31:08;;;;;;;5.65;2.03;;;14.90;99.90;;;;;;5020629;28;20025;-74
2022/10/22 10:33:50;;;;;;;4.32;1.83;;;14.90;99.90;;;;;;5032071;28;20025;-76
2022/10/22 10:36:48;;;;;;;3.47;1.70;;;15.00;99.90;;;;;;5032288;28;20418;-76
2022/10/22 10:39:32;;;;;;;4.18;1.88;;;15.10;99.90;;;;;;5020636;28;20067;-75
2022/10/22 10:42:21;;;;;;;2.88;1.90;;;15.20;99.90;;;;;;5028074;28;20048;-75
2022/10/22 10:44:59;;;;;;;2.70;1.90;;;15.20;99.90;;;;;;5025647;28;20021;-75
2022/10/22 10:47:44;;;;;;;4.78;1.67;;;15.20;99.90;;;;;;5003056;28;20068;-75
2022/10/22 10:50:25;;;;;;;2.25;1.92;;;15.30;99.90;;;;;;5018689;28;20045;-75
2022/10/22 10:52:56;;;;;;;5.95;1.80;;;15.20;99.90;;;;;;5018617;28;20373;-75
2022/10/22 10:55:33;;;;;;;3.97;1.70;;;15.20;99.90;;;;;;5023621;28;20026;-74
2022/10/22 10:58:19;;;;;;;3.03;1.63;;;15.40;99.90;;;;;;5014427;28;20104;-74
2022/10/22 11:00:55;;;;;;;4.97;1.60;;;15.30;99.90;;;;;;5031629;28;20049;-74
2022/10/22 11:03:39;;;;;;;;;;;15.40;99.90;;;;;;5027609;28;20026;-74
2022/10/22 11:06:18;;;;;;;1.65;1.20;;;15.50;99.90;;;;;;5029736;28;19905;-75
2022/10/22 11:08:57;;;;;;;3.30;1.90;;;15.40;99.90;;;;;;5022093;28;20025;-74
2022/10/22 11:11:46;;;;;;;3.13;1.30;;;15.30;99.90;;;;;;5000603;28;20162;-75
2022/10/22 11:14:36;;;;;;;6.07;1.55;;;15.40;99.90;;;;;;5008387;28;20048;-75
2022/10/22 11:17:15;;;;;;;3.78;1.50;;;15.30;99.90;;;;;;5024036;28;20022;-75
2022/10/22 11:20:12;;;;;;;2.63;1.23;;;15.30;99.90;;;;;;5012166;28;20030;-74
2022/10/22 11:22:41;;;;;;;;;;;15.30;99.90;;;;;;5017171;28;20056;-74
2022/10/22 11:25:32;;;;;;;5.60;1.52;;;15.20;99.90;;;;;;5030775;28;20367;-74
2022/10/22 11:28:07;;;;;;;7.15;3.70;;;15.40;99.90;;;;;;5031138;28;20387;-74
2022/10/22 11:30:35;;;;;;;4.55;1.52;;;15.70;99.90;;;;;;5031403;28;20025;-74
2022/10/22 11:33:08;;;;;;;3.10;1.60;;;15.70;99.90;;;;;;5031514;28;20025;-74
2022/10/22 11:35:39;;;;;;;3.05;1.40;;;15.70;99.90;;;;;;5013228;28;20029;-74
2022/10/22 11:38:06;;;;;;;3.72;1.60;;;15.70;99.90;;;;;;5023343;28;20017;-74
2022/10/22 11:40:36;;;;;;;3.28;1.60;;;15.90;99.90;;;;;;5012948;28;20022;-74
2022/10/22 11:43:24;;;;;;;5.45;1.60;;;15.90;99.90;;;;;;5030772;28;20026;-74
2022/10/22 11:46:16;;;;;;;2.50;1.50;;;16.00;99.90;;;;;;5023592;28;20040;-74
2022/10/22 11:48:42;;;;;;;2.60;1.40;;;16.50;99.90;;;;;;5023154;28;20501;-74
2022/10/22 11:51:36;;;;;;;4.13;1.45;;;16.50;99.90;;;;;;5031250;28;20057;-75
2022/10/22 11:54:41;;;;;;;4.40;1.42;;;16.60;99.90;;;;;;5021216;28;20025;-75
2022/10/22 11:57:20;;;;;;;2.80;1.45;;;16.10;99.90;;;;;;5002274;28;20484;-75
2022/10/22 11:59:50;;;;;;;4.60;1.85;;;16.10;99.90;;;;;;5013062;28;20045;-75
2022/10/22 12:02:29;;;;;;;2.65;1.65;;;16.00;99.90;;;;;;5013550;28;20021;-75
2022/10/22 12:05:17;;;;;;;5.85;1.50;;;16.30;99.90;;;;;;5030939;28;20028;-75
2022/10/22 12:08:14;;;;;;;5.38;1.80;;;16.60;99.90;;;;;;5032663;28;20505;-75
2022/10/22 12:11:02;;;;;;;3.42;1.40;;;16.50;99.90;;;;;;5034459;28;20499;-75
2022/10/22 12:13:31;;;;;;;15.35;1.98;;;16.70;99.90;;;;;;5034757;28;20029;-75
2022/10/22 12:16:00;;;;;;;3.17;1.27;;;16.70;99.90;;;;;;5034542;28;20396;-75
2022/10/22 12:18:40;;;;;;;4.38;1.40;;;16.60;99.90;;;;;;5034539;28;20471;-75
2022/10/22 12:21:08;;;;;;;4.95;1.83;;;16.90;99.90;;;;;;5017152;28;20550;-75
2022/10/22 12:23:34;;;;;;;3.78;1.60;;;16.70;99.90;;;;;;5022051;28;20037;-75
2022/10/22 12:26:01;;;;;;;4.88;1.40;;;16.70;99.90;;;;;;5028521;28;20044;-75
2022/10/22 12:28:26;;;;;;;3.50;1.30;;;16.80;99.90;;;;;;5027295;28;20433;-74
2022/10/22 12:30:52;;;;;;;6.20;1.60;;;16.80;99.90;;;;;;5019120;28;20022;-75
2022/10/22 12:33:21;;;;;;;5.45;1.50;;;16.80;99.90;;;;;;5029344;28;20022;-75
2022/10/22 12:35:50;;;;;;;4.55;1.55;;;16.60;99.90;;;;;;5016606;28;20017;-74
2022/10/22 12:38:22;;;;;;;1.70;1.10;;;16.60;99.90;;;;;;5021137;28;20434;-75
2022/10/22 12:40:49;;;;;;;5.68;1.38;;;16.50;99.90;;;;;;5004111;28;20411;-75
2022/10/22 12:43:27;;;;;;;4.25;1.13;;;16.30;99.90;;;;;;5016360;28;20027;-75
2022/10/22 12:45:54;;;;;;;4.55;1.42;;;16.40;99.90;;;;;;5034167;28;20093;-75
2022/10/22 12:48:29;;;;;;;2.70;1.30;;;16.40;99.90;;;;;;5020491;28;20084;-73
2022/10/22 12:50:58;;;;;;;6.43;1.45;;;16.30;99.90;;;;;;5023999;28;20026;-74
2022/10/22 12:53:25;;;;;;;2.95;1.35;;;16.30;99.90;;;;;;5031185;28;20032;-75
2022/10/22 12:55:53;;;;;;;2.25;1.40;;;16.40;99.90;;;;;;5005551;28;20057;-71
2022/10/22 12:58:27;;;;;;;4.35;1.20;;;16.40;99.90;;;;;;5027320;28;20096;-77
2022/10/22 13:01:00;;;;;;;3.22;1.20;;;16.40;99.90;;;;;;5014318;28;20076;-78